PWSweather.com
Personal Weather Stations
Station Observations
KOHAVON11
Long Road Station, Avon, OH 44011

Long Road StationAvon, OH 44011

Lat: 41.437, Lon: -82.0477

Elevation: 686

Station Type: Davis Vantage Pro2

http://www.avon-weather.com

Latest ConditionsUpdated 10:05:15 PM EST Monday, Mar 2, 2015
Currently Today's Max Today's Min Today's Average
Temperature 15.6°F-9.1°C 28.5°F-1.9°C 15.6°F-9.1°C 23.0°F-5.0°C
Dew Point 8.2°F-13.2°C 19.0°F-7.2°C 8.1°F-13.3°C 14.7°F-9.6°C
Winds Calm Calm 12.0 mph W19.3 kmh W - 4.2 mph 6.8 kmh
Wind Gusts -- 17.0 mph27.4 kmh - -
Humidity 72% 87% 56% 71%
Pressure 30.45 in1031.2 mb 30.51 in1033.2 mb 30.29 in1025.7 mb -
Hour Temp Dew Point Humidity Winds Wind Gusts Pressure Precip Precip Rate Daily Precip Total
10:05 PM 15.6°F-9.1°C 8.2°F-13.2°C 72% Calm Calm -- 30.45 in1031.2 mb 0.00 in0.0 mm 0.00 in/hr0.0 mm/hr 0.00 in0.0 mm
10:00 PM 15.6°F-9.1°C 8.2°F-13.2°C 72% Calm Calm -- 30.44 in1030.8 mb 0.00 in0.0 mm 0.00 in/hr0.0 mm/hr 0.00 in0.0 mm
09:55 PM 15.7°F-9.1°C 8.3°F-13.2°C 72% Calm Calm -- 30.44 in1030.8 mb 0.00 in0.0 mm 0.00 in/hr0.0 mm/hr 0.00 in0.0 mm
09:50 PM 15.9°F-8.9°C 8.1°F-13.3°C 71% Calm Calm -- 30.44 in1030.8 mb 0.00 in0.0 mm 0.00 in/hr0.0 mm/hr 0.00 in0.0 mm
09:45 PM 16.1°F-8.8°C 8.3°F-13.2°C 71% Calm Calm -- 30.45 in1031.2 mb 0.00 in0.0 mm 0.00 in/hr0.0 mm/hr 0.00 in0.0 mm
09:40 PM 16.3°F-8.7°C 8.5°F-13.1°C 71% Calm Calm -- 30.45 in1031.2 mb 0.00 in0.0 mm 0.00 in/hr0.0 mm/hr 0.00 in0.0 mm
09:35 PM 16.6°F-8.6°C 8.8°F-12.9°C 71% Calm Calm -- 30.45 in1031.2 mb 0.00 in0.0 mm 0.00 in/hr0.0 mm/hr 0.00 in0.0 mm
09:30 PM 16.9°F-8.4°C 9.4°F-12.6°C 72% Calm Calm -- 30.45 in1031.2 mb 0.00 in0.0 mm 0.00 in/hr0.0 mm/hr 0.00 in0.0 mm
09:25 PM 17.0°F-8.3°C 9.5°F-12.5°C 72% Calm Calm -- 30.45 in1031.2 mb 0.00 in0.0 mm 0.00 in/hr0.0 mm/hr 0.00 in0.0 mm
09:20 PM 17.0°F-8.3°C 9.5°F-12.5°C 72% Calm Calm -- 30.45 in1031.2 mb 0.00 in0.0 mm 0.00 in/hr0.0 mm/hr 0.00 in0.0 mm
09:15 PM 17.0°F-8.3°C 9.5°F-12.5°C 72% Calm Calm -- 30.45 in1031.2 mb 0.00 in0.0 mm 0.00 in/hr0.0 mm/hr 0.00 in0.0 mm
09:10 PM 16.8°F-8.4°C 9.3°F-12.6°C 72% Calm Calm -- 30.45 in1031.2 mb 0.00 in0.0 mm 0.00 in/hr0.0 mm/hr 0.00 in0.0 mm
09:05 PM 16.6°F-8.6°C 8.8°F-12.9°C 71% Calm Calm -- 30.45 in1031.2 mb 0.00 in0.0 mm 0.00 in/hr0.0 mm/hr 0.00 in0.0 mm
09:00 PM 16.6°F-8.6°C 8.5°F-13.1°C 70% Calm Calm -- 30.45 in1031.2 mb 0.00 in0.0 mm 0.00 in/hr0.0 mm/hr 0.00 in0.0 mm
08:55 PM 16.7°F-8.5°C 8.6°F-13.0°C 70% Calm Calm -- 30.46 in1031.5 mb 0.00 in0.0 mm 0.00 in/hr0.0 mm/hr 0.00 in0.0 mm
08:50 PM 16.9°F-8.4°C 8.8°F-12.9°C 70% Calm Calm 1.0 mph1.6 kmh 30.46 in1031.5 mb 0.00 in0.0 mm 0.00 in/hr0.0 mm/hr 0.00 in0.0 mm
08:45 PM 17.1°F-8.3°C 8.6°F-13.0°C 69% Calm Calm -- 30.46 in1031.5 mb 0.00 in0.0 mm 0.00 in/hr0.0 mm/hr 0.00 in0.0 mm
08:40 PM 17.3°F-8.2°C 8.8°F-12.9°C 69% Calm Calm -- 30.46 in1031.5 mb 0.00 in0.0 mm 0.00 in/hr0.0 mm/hr 0.00 in0.0 mm
08:35 PM 17.4°F-8.1°C 8.6°F-13.0°C 68% Calm Calm -- 30.46 in1031.5 mb 0.00 in0.0 mm 0.00 in/hr0.0 mm/hr 0.00 in0.0 mm
08:30 PM 17.7°F-7.9°C 8.5°F-13.1°C 67% Calm Calm -- 30.47 in1031.8 mb 0.00 in0.0 mm 0.00 in/hr0.0 mm/hr 0.00 in0.0 mm
08:25 PM 17.9°F-7.8°C 8.7°F-12.9°C 67% Calm Calm -- 30.47 in1031.8 mb 0.00 in0.0 mm 0.00 in/hr0.0 mm/hr 0.00 in0.0 mm
08:20 PM 18.3°F-7.6°C 9.1°F-12.7°C 67% Calm Calm -- 30.48 in1032.2 mb 0.00 in0.0 mm 0.00 in/hr0.0 mm/hr 0.00 in0.0 mm
08:15 PM 18.5°F-7.5°C 9.3°F-12.6°C 67% Calm Calm -- 30.48 in1032.2 mb 0.00 in0.0 mm 0.00 in/hr0.0 mm/hr 0.00 in0.0 mm
08:10 PM 18.7°F-7.4°C 9.8°F-12.3°C 68% Calm Calm -- 30.48 in1032.2 mb 0.00 in0.0 mm 0.00 in/hr0.0 mm/hr 0.00 in0.0 mm
08:05 PM 18.8°F-7.3°C 9.9°F-12.3°C 68% Calm Calm -- 30.48 in1032.2 mb 0.00 in0.0 mm 0.00 in/hr0.0 mm/hr 0.00 in0.0 mm
08:00 PM 18.7°F-7.4°C 9.8°F-12.3°C 68% Calm Calm 1.0 mph1.6 kmh 30.48 in1032.2 mb 0.00 in0.0 mm 0.00 in/hr0.0 mm/hr 0.00 in0.0 mm
07:55 PM 18.7°F-7.4°C 9.8°F-12.3°C 68% Calm Calm 1.0 mph1.6 kmh 30.48 in1032.2 mb 0.00 in0.0 mm 0.00 in/hr0.0 mm/hr 0.00 in0.0 mm
07:50 PM 18.7°F-7.4°C 9.5°F-12.5°C 67% 1.0 mph S1.6 kmh S 1.0 mph1.6 kmh 30.48 in1032.2 mb 0.00 in0.0 mm 0.00 in/hr0.0 mm/hr 0.00 in0.0 mm
07:45 PM 18.9°F-7.3°C 9.3°F-12.6°C 66% Calm Calm -- 30.48 in1032.2 mb 0.00 in0.0 mm 0.00 in/hr0.0 mm/hr 0.00 in0.0 mm
07:40 PM 19.2°F-7.1°C 9.6°F-12.4°C 66% Calm Calm -- 30.48 in1032.2 mb 0.00 in0.0 mm 0.00 in/hr0.0 mm/hr 0.00 in0.0 mm
07:35 PM 19.4°F-7.0°C 9.5°F-12.5°C 65% Calm Calm -- 30.48 in1032.2 mb 0.00 in0.0 mm 0.00 in/hr0.0 mm/hr 0.00 in0.0 mm
07:30 PM 19.8°F-6.8°C 9.5°F-12.5°C 64% Calm Calm -- 30.48 in1032.2 mb 0.00 in0.0 mm 0.00 in/hr0.0 mm/hr 0.00 in0.0 mm
07:25 PM 20.2°F-6.6°C 9.5°F-12.5°C 63% Calm Calm -- 30.48 in1032.2 mb 0.00 in0.0 mm 0.00 in/hr0.0 mm/hr 0.00 in0.0 mm
07:20 PM 20.5°F-6.4°C 9.4°F-12.6°C 62% Calm Calm -- 30.48 in1032.2 mb 0.00 in0.0 mm 0.00 in/hr0.0 mm/hr 0.00 in0.0 mm
07:15 PM 20.8°F-6.2°C 9.7°F-12.4°C 62% Calm Calm -- 30.48 in1032.2 mb 0.00 in0.0 mm 0.00 in/hr0.0 mm/hr 0.00 in0.0 mm
07:10 PM 21.1°F-6.1°C 9.6°F-12.4°C 61% Calm Calm -- 30.48 in1032.2 mb 0.00 in0.0 mm 0.00 in/hr0.0 mm/hr 0.00 in0.0 mm
07:05 PM 21.5°F-5.8°C 9.6°F-12.4°C 60% Calm Calm -- 30.48 in1032.2 mb 0.00 in0.0 mm 0.00 in/hr0.0 mm/hr 0.00 in0.0 mm
07:00 PM 21.9°F-5.6°C 10.0°F-12.2°C 60% Calm Calm -- 30.48 in1032.2 mb 0.00 in0.0 mm 0.00 in/hr0.0 mm/hr 0.00 in0.0 mm
06:55 PM 22.4°F-5.3°C 10.1°F-12.2°C 59% Calm Calm -- 30.48 in1032.2 mb 0.00 in0.0 mm 0.00 in/hr0.0 mm/hr 0.00 in0.0 mm
06:50 PM 23.0°F-5.0°C 10.6°F-11.9°C 59% Calm Calm -- 30.48 in1032.2 mb 0.00 in0.0 mm 0.00 in/hr0.0 mm/hr 0.00 in0.0 mm
06:45 PM 23.6°F-4.7°C 11.6°F-11.3°C 60% Calm Calm 4.0 mph6.4 kmh 30.48 in1032.2 mb 0.00 in0.0 mm 0.00 in/hr0.0 mm/hr 0.00 in0.0 mm
06:40 PM 24.2°F-4.3°C 11.8°F-11.2°C 59% 1.0 mph WSW1.6 kmh WSW 2.0 mph3.2 kmh 30.48 in1032.2 mb 0.00 in0.0 mm 0.00 in/hr0.0 mm/hr 0.00 in0.0 mm
06:35 PM 24.6°F-4.1°C 12.5°F-10.8°C 60% Calm Calm 2.0 mph3.2 kmh 30.48 in1032.2 mb 0.00 in0.0 mm 0.00 in/hr0.0 mm/hr 0.00 in0.0 mm
06:30 PM 24.8°F-4.0°C 12.3°F-10.9°C 59% 1.0 mph WSW1.6 kmh WSW 1.0 mph1.6 kmh 30.48 in1032.2 mb 0.00 in0.0 mm 0.00 in/hr0.0 mm/hr 0.00 in0.0 mm
06:25 PM 24.9°F-3.9°C 12.4°F-10.9°C 59% Calm Calm 4.0 mph6.4 kmh 30.48 in1032.2 mb 0.00 in0.0 mm 0.00 in/hr0.0 mm/hr 0.00 in0.0 mm
06:20 PM 25.1°F-3.8°C 12.6°F-10.8°C 59% 1.0 mph WNW1.6 kmh WNW 4.0 mph6.4 kmh 30.48 in1032.2 mb 0.00 in0.0 mm 0.00 in/hr0.0 mm/hr 0.00 in0.0 mm
06:15 PM 25.3°F-3.7°C 12.4°F-10.9°C 58% 1.0 mph WNW1.6 kmh WNW 6.0 mph9.7 kmh 30.48 in1032.2 mb 0.00 in0.0 mm 0.00 in/hr0.0 mm/hr 0.00 in0.0 mm
06:10 PM 25.5°F-3.6°C 12.6°F-10.8°C 58% Calm Calm 6.0 mph9.7 kmh 30.48 in1032.2 mb 0.00 in0.0 mm 0.00 in/hr0.0 mm/hr 0.00 in0.0 mm
06:05 PM 25.7°F-3.5°C 12.8°F-10.7°C 58% 2.0 mph WNW3.2 kmh WNW 6.0 mph9.7 kmh 30.48 in1032.2 mb 0.00 in0.0 mm 0.00 in/hr0.0 mm/hr 0.00 in0.0 mm
06:00 PM 25.9°F-3.4°C 13.0°F-10.6°C 58% 4.0 mph WNW6.4 kmh WNW 6.0 mph9.7 kmh 30.48 in1032.2 mb 0.00 in0.0 mm 0.00 in/hr0.0 mm/hr 0.00 in0.0 mm
05:55 PM 26.1°F-3.3°C 13.1°F-10.5°C 58% 2.0 mph NNW3.2 kmh NNW 5.0 mph8.0 kmh 30.48 in1032.2 mb 0.00 in0.0 mm 0.00 in/hr0.0 mm/hr 0.00 in0.0 mm
05:50 PM 26.1°F-3.3°C 13.1°F-10.5°C 58% 3.0 mph WNW4.8 kmh WNW 6.0 mph9.7 kmh 30.48 in1032.2 mb 0.00 in0.0 mm 0.00 in/hr0.0 mm/hr 0.00 in0.0 mm
05:45 PM 26.2°F-3.2°C 12.8°F-10.7°C 57% 1.0 mph WNW1.6 kmh WNW 6.0 mph9.7 kmh 30.48 in1032.2 mb 0.00 in0.0 mm 0.00 in/hr0.0 mm/hr 0.00 in0.0 mm
05:40 PM 26.3°F-3.2°C 12.5°F-10.8°C 56% 3.0 mph W4.8 kmh W 8.0 mph12.9 kmh 30.48 in1032.2 mb 0.00 in0.0 mm 0.00 in/hr0.0 mm/hr 0.00 in0.0 mm
05:35 PM 26.3°F-3.2°C 12.5°F-10.8°C 56% 5.0 mph NW8.0 kmh NW 8.0 mph12.9 kmh 30.48 in1032.2 mb 0.00 in0.0 mm 0.00 in/hr0.0 mm/hr 0.00 in0.0 mm
05:30 PM 26.4°F-3.1°C 13.0°F-10.6°C 57% 6.0 mph W9.7 kmh W 8.0 mph12.9 kmh 30.48 in1032.2 mb 0.00 in0.0 mm 0.00 in/hr0.0 mm/hr 0.00 in0.0 mm
05:25 PM 26.4°F-3.1°C 13.0°F-10.6°C 57% 3.0 mph WNW4.8 kmh WNW 8.0 mph12.9 kmh 30.48 in1032.2 mb 0.00 in0.0 mm 0.00 in/hr0.0 mm/hr 0.00 in0.0 mm
05:20 PM 26.4°F-3.1°C 13.0°F-10.6°C 57% 3.0 mph WNW4.8 kmh WNW 9.0 mph14.5 kmh 30.48 in1032.2 mb 0.00 in0.0 mm 0.00 in/hr0.0 mm/hr 0.00 in0.0 mm
05:15 PM 26.4°F-3.1°C 13.0°F-10.6°C 57% 2.0 mph W3.2 kmh W 9.0 mph14.5 kmh 30.48 in1032.2 mb 0.00 in0.0 mm 0.00 in/hr0.0 mm/hr 0.00 in0.0 mm
05:10 PM 26.4°F-3.1°C 13.0°F-10.6°C 57% 4.0 mph W6.4 kmh W 9.0 mph14.5 kmh 30.48 in1032.2 mb 0.00 in0.0 mm 0.00 in/hr0.0 mm/hr 0.00 in0.0 mm
05:05 PM 26.5°F-3.1°C 13.1°F-10.5°C 57% 4.0 mph W6.4 kmh W 9.0 mph14.5 kmh 30.48 in1032.2 mb 0.00 in0.0 mm 0.00 in/hr0.0 mm/hr 0.00 in0.0 mm
05:00 PM 26.5°F-3.1°C 12.7°F-10.7°C 56% 2.0 mph WSW3.2 kmh WSW 11.0 mph17.7 kmh 30.48 in1032.2 mb 0.00 in0.0 mm 0.00 in/hr0.0 mm/hr 0.00 in0.0 mm
04:55 PM 26.5°F-3.1°C 13.1°F-10.5°C 57% 3.0 mph WNW4.8 kmh WNW 11.0 mph17.7 kmh 30.48 in1032.2 mb 0.00 in0.0 mm 0.00 in/hr0.0 mm/hr 0.00 in0.0 mm
04:50 PM 26.5°F-3.1°C 12.7°F-10.7°C 56% 4.0 mph W6.4 kmh W 12.0 mph19.3 kmh 30.48 in1032.2 mb 0.00 in0.0 mm 0.00 in/hr0.0 mm/hr 0.00 in0.0 mm
04:45 PM 26.6°F-3.0°C 12.8°F-10.7°C 56% 4.0 mph W6.4 kmh W 12.0 mph19.3 kmh 30.48 in1032.2 mb 0.00 in0.0 mm 0.00 in/hr0.0 mm/hr 0.00 in0.0 mm
04:40 PM 26.7°F-2.9°C 12.9°F-10.6°C 56% 7.0 mph NW11.3 kmh NW 12.0 mph19.3 kmh 30.49 in1032.5 mb 0.00 in0.0 mm 0.00 in/hr0.0 mm/hr 0.00 in0.0 mm
04:35 PM 26.7°F-2.9°C 12.9°F-10.6°C 56% 5.0 mph W8.0 kmh W 12.0 mph19.3 kmh 30.49 in1032.5 mb 0.00 in0.0 mm 0.00 in/hr0.0 mm/hr 0.00 in0.0 mm
04:30 PM 26.8°F-2.9°C 13.4°F-10.3°C 57% 6.0 mph WNW9.7 kmh WNW 11.0 mph17.7 kmh 30.49 in1032.5 mb 0.00 in0.0 mm 0.00 in/hr0.0 mm/hr 0.00 in0.0 mm
04:25 PM 26.8°F-2.9°C 13.4°F-10.3°C 57% 3.0 mph WNW4.8 kmh WNW 11.0 mph17.7 kmh 30.49 in1032.5 mb 0.00 in0.0 mm 0.00 in/hr0.0 mm/hr 0.00 in0.0 mm
04:20 PM 26.8°F-2.9°C 13.0°F-10.6°C 56% 9.0 mph WNW14.5 kmh WNW 11.0 mph17.7 kmh 30.49 in1032.5 mb 0.00 in0.0 mm 0.00 in/hr0.0 mm/hr 0.00 in0.0 mm
04:15 PM 26.8°F-2.9°C 13.0°F-10.6°C 56% 3.0 mph W4.8 kmh W 14.0 mph22.5 kmh 30.49 in1032.5 mb 0.00 in0.0 mm 0.00 in/hr0.0 mm/hr 0.00 in0.0 mm
04:10 PM 26.8°F-2.9°C 13.4°F-10.3°C 57% 6.0 mph WNW9.7 kmh WNW 14.0 mph22.5 kmh 30.49 in1032.5 mb 0.00 in0.0 mm 0.00 in/hr0.0 mm/hr 0.00 in0.0 mm
04:05 PM 26.8°F-2.9°C 13.4°F-10.3°C 57% 4.0 mph WNW6.4 kmh WNW 14.0 mph22.5 kmh 30.49 in1032.5 mb 0.00 in0.0 mm 0.00 in/hr0.0 mm/hr 0.00 in0.0 mm
04:00 PM 26.8°F-2.9°C 13.4°F-10.3°C 57% 8.0 mph WNW12.9 kmh WNW 14.0 mph22.5 kmh 30.49 in1032.5 mb 0.00 in0.0 mm 0.00 in/hr0.0 mm/hr 0.00 in0.0 mm
03:55 PM 26.9°F-2.8°C 13.1°F-10.5°C 56% 3.0 mph WNW4.8 kmh WNW 15.0 mph24.1 kmh 30.50 in1032.8 mb 0.00 in0.0 mm 0.00 in/hr0.0 mm/hr 0.00 in0.0 mm
03:50 PM 26.9°F-2.8°C 13.1°F-10.5°C 56% 5.0 mph W8.0 kmh W 15.0 mph24.1 kmh 30.50 in1032.8 mb 0.00 in0.0 mm 0.00 in/hr0.0 mm/hr 0.00 in0.0 mm
03:45 PM 27.0°F-2.8°C 13.2°F-10.4°C 56% 6.0 mph W9.7 kmh W 15.0 mph24.1 kmh 30.50 in1032.8 mb 0.00 in0.0 mm 0.00 in/hr0.0 mm/hr 0.00 in0.0 mm
03:40 PM 27.0°F-2.8°C 13.2°F-10.4°C 56% 9.0 mph W14.5 kmh W 15.0 mph24.1 kmh 30.49 in1032.5 mb 0.00 in0.0 mm 0.00 in/hr0.0 mm/hr 0.00 in0.0 mm
03:35 PM 27.2°F-2.7°C 13.8°F-10.1°C 57% 7.0 mph WNW11.3 kmh WNW 14.0 mph22.5 kmh 30.49 in1032.5 mb 0.00 in0.0 mm 0.00 in/hr0.0 mm/hr 0.00 in0.0 mm
03:30 PM 27.2°F-2.7°C 14.2°F-9.9°C 58% 2.0 mph WNW3.2 kmh WNW 14.0 mph22.5 kmh 30.49 in1032.5 mb 0.00 in0.0 mm 0.00 in/hr0.0 mm/hr 0.00 in0.0 mm
03:25 PM 27.2°F-2.7°C 13.8°F-10.1°C 57% 5.0 mph W8.0 kmh W 14.0 mph22.5 kmh 30.49 in1032.5 mb 0.00 in0.0 mm 0.00 in/hr0.0 mm/hr 0.00 in0.0 mm
03:20 PM 27.4°F-2.6°C 13.9°F-10.1°C 57% 6.0 mph WNW9.7 kmh WNW 11.0 mph17.7 kmh 30.49 in1032.5 mb 0.00 in0.0 mm 0.00 in/hr0.0 mm/hr 0.00 in0.0 mm
03:15 PM 27.5°F-2.5°C 14.0°F-10.0°C 57% 3.0 mph W4.8 kmh W 14.0 mph22.5 kmh 30.49 in1032.5 mb 0.00 in0.0 mm 0.00 in/hr0.0 mm/hr 0.00 in0.0 mm
03:10 PM 27.5°F-2.5°C 14.0°F-10.0°C 57% 3.0 mph WSW4.8 kmh WSW 14.0 mph22.5 kmh 30.49 in1032.5 mb 0.00 in0.0 mm 0.00 in/hr0.0 mm/hr 0.00 in0.0 mm
03:05 PM 27.8°F-2.3°C 13.9°F-10.1°C 56% 4.0 mph WNW6.4 kmh WNW 14.0 mph22.5 kmh 30.49 in1032.5 mb 0.00 in0.0 mm 0.00 in/hr0.0 mm/hr 0.00 in0.0 mm
03:00 PM 28.1°F-2.2°C 14.6°F-9.7°C 57% 8.0 mph W12.9 kmh W 14.0 mph22.5 kmh 30.49 in1032.5 mb 0.00 in0.0 mm 0.00 in/hr0.0 mm/hr 0.00 in0.0 mm
02:55 PM 28.1°F-2.2°C 14.2°F-9.9°C 56% 10.0 mph NW16.1 kmh NW 12.0 mph19.3 kmh 30.49 in1032.5 mb 0.00 in0.0 mm 0.00 in/hr0.0 mm/hr 0.00 in0.0 mm
02:50 PM 28.3°F-2.1°C 14.4°F-9.8°C 56% 5.0 mph W8.0 kmh W 10.0 mph16.1 kmh 30.49 in1032.5 mb 0.00 in0.0 mm 0.00 in/hr0.0 mm/hr 0.00 in0.0 mm
02:45 PM 28.4°F-2.0°C 14.5°F-9.7°C 56% 2.0 mph W3.2 kmh W 10.0 mph16.1 kmh 30.49 in1032.5 mb 0.00 in0.0 mm 0.00 in/hr0.0 mm/hr 0.00 in0.0 mm
02:40 PM 28.4°F-2.0°C 14.5°F-9.7°C 56% 4.0 mph WSW6.4 kmh WSW 10.0 mph16.1 kmh 30.49 in1032.5 mb 0.00 in0.0 mm 0.00 in/hr0.0 mm/hr 0.00 in0.0 mm
02:35 PM 28.5°F-1.9°C 14.6°F-9.7°C 56% 4.0 mph WNW6.4 kmh WNW 11.0 mph17.7 kmh 30.49 in1032.5 mb 0.00 in0.0 mm 0.00 in/hr0.0 mm/hr 0.00 in0.0 mm
02:30 PM 28.4°F-2.0°C 14.9°F-9.5°C 57% 5.0 mph WSW8.0 kmh WSW 11.0 mph17.7 kmh 30.49 in1032.5 mb 0.00 in0.0 mm 0.00 in/hr0.0 mm/hr 0.00 in0.0 mm
02:25 PM 28.3°F-2.1°C 14.8°F-9.6°C 57% 6.0 mph NW9.7 kmh NW 12.0 mph19.3 kmh 30.49 in1032.5 mb 0.00 in0.0 mm 0.00 in/hr0.0 mm/hr 0.00 in0.0 mm
02:20 PM 28.1°F-2.2°C 14.6°F-9.7°C 57% 4.0 mph NW6.4 kmh NW 12.0 mph19.3 kmh 30.49 in1032.5 mb 0.00 in0.0 mm 0.00 in/hr0.0 mm/hr 0.00 in0.0 mm
02:15 PM 28.0°F-2.2°C 14.1°F-9.9°C 56% 5.0 mph WNW8.0 kmh WNW 13.0 mph20.9 kmh 30.49 in1032.5 mb 0.00 in0.0 mm 0.00 in/hr0.0 mm/hr 0.00 in0.0 mm
02:10 PM 27.9°F-2.3°C 14.4°F-9.8°C 57% 9.0 mph WNW14.5 kmh WNW 13.0 mph20.9 kmh 30.49 in1032.5 mb 0.00 in0.0 mm 0.00 in/hr0.0 mm/hr 0.00 in0.0 mm
02:05 PM 27.8°F-2.3°C 13.9°F-10.1°C 56% 8.0 mph WNW12.9 kmh WNW 13.0 mph20.9 kmh 30.49 in1032.5 mb 0.00 in0.0 mm 0.00 in/hr0.0 mm/hr 0.00 in0.0 mm
02:00 PM 27.8°F-2.3°C 13.9°F-10.1°C 56% 8.0 mph WNW12.9 kmh WNW 13.0 mph20.9 kmh 30.49 in1032.5 mb 0.00 in0.0 mm 0.00 in/hr0.0 mm/hr 0.00 in0.0 mm
01:55 PM 27.9°F-2.3°C 14.0°F-10.0°C 56% 6.0 mph W9.7 kmh W 11.0 mph17.7 kmh 30.50 in1032.8 mb 0.00 in0.0 mm 0.00 in/hr0.0 mm/hr 0.00 in0.0 mm
01:50 PM 27.9°F-2.3°C 14.4°F-9.8°C 57% 5.0 mph W8.0 kmh W 10.0 mph16.1 kmh 30.50 in1032.8 mb 0.00 in0.0 mm 0.00 in/hr0.0 mm/hr 0.00 in0.0 mm
01:45 PM 27.8°F-2.3°C 13.9°F-10.1°C 56% 3.0 mph W4.8 kmh W 10.0 mph16.1 kmh 30.50 in1032.8 mb 0.00 in0.0 mm 0.00 in/hr0.0 mm/hr 0.00 in0.0 mm
01:40 PM 27.8°F-2.3°C 14.3°F-9.8°C 57% 6.0 mph W9.7 kmh W 10.0 mph16.1 kmh 30.49 in1032.5 mb 0.00 in0.0 mm 0.00 in/hr0.0 mm/hr 0.00 in0.0 mm
01:35 PM 27.7°F-2.4°C 14.6°F-9.7°C 58% 6.0 mph WSW9.7 kmh WSW 10.0 mph16.1 kmh 30.50 in1032.8 mb 0.00 in0.0 mm 0.00 in/hr0.0 mm/hr 0.00 in0.0 mm
01:30 PM 27.6°F-2.4°C 14.9°F-9.5°C 59% 4.0 mph WSW6.4 kmh WSW 10.0 mph16.1 kmh 30.50 in1032.8 mb 0.00 in0.0 mm 0.00 in/hr0.0 mm/hr 0.00 in0.0 mm
01:25 PM 27.2°F-2.7°C 14.2°F-9.9°C 58% 4.0 mph SW6.4 kmh SW 10.0 mph16.1 kmh 30.50 in1032.8 mb 0.00 in0.0 mm 0.00 in/hr0.0 mm/hr 0.00 in0.0 mm
01:20 PM 27.3°F-2.6°C 15.1°F-9.4°C 60% 4.0 mph W6.4 kmh W 10.0 mph16.1 kmh 30.50 in1032.8 mb 0.00 in0.0 mm 0.00 in/hr0.0 mm/hr 0.00 in0.0 mm
01:15 PM 27.2°F-2.7°C 15.4°F-9.2°C 61% 3.0 mph WNW4.8 kmh WNW 10.0 mph16.1 kmh 30.50 in1032.8 mb 0.00 in0.0 mm 0.00 in/hr0.0 mm/hr 0.00 in0.0 mm
01:10 PM 27.1°F-2.7°C 15.7°F-9.1°C 62% 6.0 mph WSW9.7 kmh WSW 10.0 mph16.1 kmh 30.51 in1033.2 mb 0.00 in0.0 mm 0.00 in/hr0.0 mm/hr 0.00 in0.0 mm
01:05 PM 26.9°F-2.8°C 15.1°F-9.4°C 61% 3.0 mph WNW4.8 kmh WNW 10.0 mph16.1 kmh 30.50 in1032.8 mb 0.00 in0.0 mm 0.00 in/hr0.0 mm/hr 0.00 in0.0 mm
01:00 PM 26.8°F-2.9°C 15.0°F-9.4°C 61% 2.0 mph W3.2 kmh W 10.0 mph16.1 kmh 30.51 in1033.2 mb 0.00 in0.0 mm 0.00 in/hr0.0 mm/hr 0.00 in0.0 mm
12:55 PM 26.9°F-2.8°C 15.1°F-9.4°C 61% 4.0 mph NW6.4 kmh NW 9.0 mph14.5 kmh 30.51 in1033.2 mb 0.00 in0.0 mm 0.00 in/hr0.0 mm/hr 0.00 in0.0 mm
12:50 PM 26.7°F-2.9°C 15.3°F-9.3°C 62% 5.0 mph NW8.0 kmh NW 10.0 mph16.1 kmh 30.51 in1033.2 mb 0.00 in0.0 mm 0.00 in/hr0.0 mm/hr 0.00 in0.0 mm
12:45 PM 26.4°F-3.1°C 15.4°F-9.2°C 63% 5.0 mph WSW8.0 kmh WSW 10.0 mph16.1 kmh 30.51 in1033.2 mb 0.00 in0.0 mm 0.00 in/hr0.0 mm/hr 0.00 in0.0 mm
12:40 PM 26.3°F-3.2°C 15.3°F-9.3°C 63% 5.0 mph WSW8.0 kmh WSW 10.0 mph16.1 kmh 30.51 in1033.2 mb 0.00 in0.0 mm 0.00 in/hr0.0 mm/hr 0.00 in0.0 mm
12:35 PM 26.1°F-3.3°C 15.1°F-9.4°C 63% 4.0 mph WSW6.4 kmh WSW 10.0 mph16.1 kmh 30.51 in1033.2 mb 0.00 in0.0 mm 0.00 in/hr0.0 mm/hr 0.00 in0.0 mm
12:30 PM 25.9°F-3.4°C 14.5°F-9.7°C 62% 5.0 mph NW8.0 kmh NW 11.0 mph17.7 kmh 30.51 in1033.2 mb 0.00 in0.0 mm 0.00 in/hr0.0 mm/hr 0.00 in0.0 mm
12:25 PM 25.9°F-3.4°C 14.9°F-9.5°C 63% 5.0 mph W8.0 kmh W 11.0 mph17.7 kmh 30.51 in1033.2 mb 0.00 in0.0 mm 0.00 in/hr0.0 mm/hr 0.00 in0.0 mm
12:20 PM 25.8°F-3.4°C 14.8°F-9.6°C 63% 4.0 mph WNW6.4 kmh WNW 13.0 mph20.9 kmh 30.51 in1033.2 mb 0.00 in0.0 mm 0.00 in/hr0.0 mm/hr 0.00 in0.0 mm
12:15 PM 25.7°F-3.5°C 14.7°F-9.6°C 63% 7.0 mph WNW11.3 kmh WNW 13.0 mph20.9 kmh 30.51 in1033.2 mb 0.00 in0.0 mm 0.00 in/hr0.0 mm/hr 0.00 in0.0 mm
12:10 PM 25.7°F-3.5°C 15.1°F-9.4°C 64% 6.0 mph WNW9.7 kmh WNW 15.0 mph24.1 kmh 30.51 in1033.2 mb 0.00 in0.0 mm 0.00 in/hr0.0 mm/hr 0.00 in0.0 mm
12:05 PM 25.5°F-3.6°C 14.9°F-9.5°C 64% 6.0 mph WNW9.7 kmh WNW 15.0 mph24.1 kmh 30.50 in1032.8 mb 0.00 in0.0 mm 0.00 in/hr0.0 mm/hr 0.00 in0.0 mm
12:00 PM 25.4°F-3.7°C 14.8°F-9.6°C 64% 6.0 mph W9.7 kmh W 15.0 mph24.1 kmh 30.51 in1033.2 mb 0.00 in0.0 mm 0.00 in/hr0.0 mm/hr 0.00 in0.0 mm
11:55 AM 25.4°F-3.7°C 14.4°F-9.8°C 63% 12.0 mph WNW19.3 kmh WNW 15.0 mph24.1 kmh 30.50 in1032.8 mb 0.00 in0.0 mm 0.00 in/hr0.0 mm/hr 0.00 in0.0 mm
11:50 AM 25.4°F-3.7°C 14.8°F-9.6°C 64% 9.0 mph WNW14.5 kmh WNW 14.0 mph22.5 kmh 30.50 in1032.8 mb 0.00 in0.0 mm 0.00 in/hr0.0 mm/hr 0.00 in0.0 mm
11:45 AM 25.4°F-3.7°C 14.8°F-9.6°C 64% 11.0 mph W17.7 kmh W 14.0 mph22.5 kmh 30.50 in1032.8 mb 0.00 in0.0 mm 0.00 in/hr0.0 mm/hr 0.00 in0.0 mm
11:40 AM 25.3°F-3.7°C 14.7°F-9.6°C 64% 8.0 mph W12.9 kmh W 14.0 mph22.5 kmh 30.50 in1032.8 mb 0.00 in0.0 mm 0.00 in/hr0.0 mm/hr 0.00 in0.0 mm
11:35 AM 25.3°F-3.7°C 14.7°F-9.6°C 64% 8.0 mph W12.9 kmh W 14.0 mph22.5 kmh 30.50 in1032.8 mb 0.00 in0.0 mm 0.00 in/hr0.0 mm/hr 0.00 in0.0 mm
11:30 AM 25.2°F-3.8°C 15.0°F-9.4°C 65% 9.0 mph WNW14.5 kmh WNW 11.0 mph17.7 kmh 30.50 in1032.8 mb 0.00 in0.0 mm 0.00 in/hr0.0 mm/hr 0.00 in0.0 mm
11:25 AM 25.1°F-3.8°C 15.2°F-9.3°C 66% 8.0 mph W12.9 kmh W 11.0 mph17.7 kmh 30.50 in1032.8 mb 0.00 in0.0 mm 0.00 in/hr0.0 mm/hr 0.00 in0.0 mm
11:20 AM 24.9°F-3.9°C 15.0°F-9.4°C 66% 8.0 mph W12.9 kmh W 11.0 mph17.7 kmh 30.50 in1032.8 mb 0.00 in0.0 mm 0.00 in/hr0.0 mm/hr 0.00 in0.0 mm
11:15 AM 24.7°F-4.1°C 14.9°F-9.5°C 66% 7.0 mph W11.3 kmh W 15.0 mph24.1 kmh 30.49 in1032.5 mb 0.00 in0.0 mm 0.00 in/hr0.0 mm/hr 0.00 in0.0 mm
11:10 AM 24.6°F-4.1°C 14.8°F-9.6°C 66% 3.0 mph W4.8 kmh W 15.0 mph24.1 kmh 30.49 in1032.5 mb 0.00 in0.0 mm 0.00 in/hr0.0 mm/hr 0.00 in0.0 mm
11:05 AM 24.5°F-4.2°C 15.0°F-9.4°C 67% 8.0 mph W12.9 kmh W 15.0 mph24.1 kmh 30.49 in1032.5 mb 0.00 in0.0 mm 0.00 in/hr0.0 mm/hr 0.00 in0.0 mm
11:00 AM 24.6°F-4.1°C 15.1°F-9.4°C 67% 4.0 mph W6.4 kmh W 15.0 mph24.1 kmh 30.49 in1032.5 mb 0.00 in0.0 mm 0.00 in/hr0.0 mm/hr 0.00 in0.0 mm
10:55 AM 24.5°F-4.2°C 15.4°F-9.2°C 68% 7.0 mph W11.3 kmh W 12.0 mph19.3 kmh 30.49 in1032.5 mb 0.00 in0.0 mm 0.00 in/hr0.0 mm/hr 0.00 in0.0 mm
10:50 AM 24.4°F-4.2°C 15.3°F-9.3°C 68% 3.0 mph WSW4.8 kmh WSW 12.0 mph19.3 kmh 30.49 in1032.5 mb 0.00 in0.0 mm 0.00 in/hr0.0 mm/hr 0.00 in0.0 mm
10:45 AM 24.2°F-4.3°C 15.4°F-9.2°C 69% 9.0 mph W14.5 kmh W 12.0 mph19.3 kmh 30.49 in1032.5 mb 0.00 in0.0 mm 0.00 in/hr0.0 mm/hr 0.00 in0.0 mm
10:40 AM 24.1°F-4.4°C 15.3°F-9.3°C 69% 7.0 mph W11.3 kmh W 12.0 mph19.3 kmh 30.49 in1032.5 mb 0.00 in0.0 mm 0.00 in/hr0.0 mm/hr 0.00 in0.0 mm
10:35 AM 23.9°F-4.5°C 15.5°F-9.2°C 70% 4.0 mph W6.4 kmh W 14.0 mph22.5 kmh 30.48 in1032.2 mb 0.00 in0.0 mm 0.00 in/hr0.0 mm/hr 0.00 in0.0 mm
10:30 AM 23.7°F-4.6°C 15.3°F-9.3°C 70% 8.0 mph WSW12.9 kmh WSW 14.0 mph22.5 kmh 30.48 in1032.2 mb 0.00 in0.0 mm 0.00 in/hr0.0 mm/hr 0.00 in0.0 mm
10:25 AM 23.6°F-4.7°C 15.2°F-9.3°C 70% 4.0 mph WSW6.4 kmh WSW 14.0 mph22.5 kmh 30.48 in1032.2 mb 0.00 in0.0 mm 0.00 in/hr0.0 mm/hr 0.00 in0.0 mm
10:20 AM 23.5°F-4.7°C 15.4°F-9.2°C 71% 4.0 mph W6.4 kmh W 14.0 mph22.5 kmh 30.48 in1032.2 mb 0.00 in0.0 mm 0.00 in/hr0.0 mm/hr 0.00 in0.0 mm
10:15 AM 23.6°F-4.7°C 15.5°F-9.2°C 71% 4.0 mph WSW6.4 kmh WSW 14.0 mph22.5 kmh 30.48 in1032.2 mb 0.00 in0.0 mm 0.00 in/hr0.0 mm/hr 0.00 in0.0 mm
10:10 AM 23.5°F-4.7°C 15.8°F-9.0°C 72% 6.0 mph WNW9.7 kmh WNW 14.0 mph22.5 kmh 30.48 in1032.2 mb 0.00 in0.0 mm 0.00 in/hr0.0 mm/hr 0.00 in0.0 mm
10:05 AM 23.4°F-4.8°C 16.0°F-8.9°C 73% 8.0 mph NW12.9 kmh NW 13.0 mph20.9 kmh 30.48 in1032.2 mb 0.00 in0.0 mm 0.00 in/hr0.0 mm/hr 0.00 in0.0 mm
10:00 AM 23.3°F-4.8°C 15.9°F-8.9°C 73% 4.0 mph WNW6.4 kmh WNW 13.0 mph20.9 kmh 30.48 in1032.2 mb 0.00 in0.0 mm 0.00 in/hr0.0 mm/hr 0.00 in0.0 mm
09:55 AM 23.1°F-4.9°C 16.0°F-8.9°C 74% 4.0 mph W6.4 kmh W 15.0 mph24.1 kmh 30.48 in1032.2 mb 0.00 in0.0 mm 0.00 in/hr0.0 mm/hr 0.00 in0.0 mm
09:50 AM 22.9°F-5.1°C 15.8°F-9.0°C 74% 10.0 mph WSW16.1 kmh WSW 15.0 mph24.1 kmh 30.48 in1032.2 mb 0.00 in0.0 mm 0.00 in/hr0.0 mm/hr 0.00 in0.0 mm
09:45 AM 22.8°F-5.1°C 16.0°F-8.9°C 75% 4.0 mph W6.4 kmh W 15.0 mph24.1 kmh 30.48 in1032.2 mb 0.00 in0.0 mm 0.00 in/hr0.0 mm/hr 0.00 in0.0 mm
09:40 AM 22.7°F-5.2°C 15.9°F-8.9°C 75% 5.0 mph W8.0 kmh W 15.0 mph24.1 kmh 30.48 in1032.2 mb 0.00 in0.0 mm 0.00 in/hr0.0 mm/hr 0.00 in0.0 mm
09:35 AM 22.6°F-5.2°C 16.2°F-8.8°C 76% 5.0 mph WSW8.0 kmh WSW 12.0 mph19.3 kmh 30.48 in1032.2 mb 0.00 in0.0 mm 0.00 in/hr0.0 mm/hr 0.00 in0.0 mm
09:30 AM 22.4°F-5.3°C 16.0°F-8.9°C 76% 4.0 mph W6.4 kmh W 10.0 mph16.1 kmh 30.48 in1032.2 mb 0.00 in0.0 mm 0.00 in/hr0.0 mm/hr 0.00 in0.0 mm
09:25 AM 22.2°F-5.4°C 16.1°F-8.8°C 77% 6.0 mph W9.7 kmh W 8.0 mph12.9 kmh 30.48 in1032.2 mb 0.00 in0.0 mm 0.00 in/hr0.0 mm/hr 0.00 in0.0 mm
09:20 AM 22.1°F-5.5°C 16.3°F-8.7°C 78% 2.0 mph WSW3.2 kmh WSW 10.0 mph16.1 kmh 30.47 in1031.8 mb 0.00 in0.0 mm 0.00 in/hr0.0 mm/hr 0.00 in0.0 mm
09:15 AM 21.9°F-5.6°C 16.1°F-8.8°C 78% 5.0 mph WSW8.0 kmh WSW 10.0 mph16.1 kmh 30.47 in1031.8 mb 0.00 in0.0 mm 0.00 in/hr0.0 mm/hr 0.00 in0.0 mm
09:10 AM 21.8°F-5.7°C 16.3°F-8.7°C 79% 3.0 mph WSW4.8 kmh WSW 10.0 mph16.1 kmh 30.47 in1031.8 mb 0.00 in0.0 mm 0.00 in/hr0.0 mm/hr 0.00 in0.0 mm
09:05 AM 21.8°F-5.7°C 16.3°F-8.7°C 79% 7.0 mph W11.3 kmh W 10.0 mph16.1 kmh 30.47 in1031.8 mb 0.00 in0.0 mm 0.00 in/hr0.0 mm/hr 0.00 in0.0 mm
09:00 AM 21.8°F-5.7°C 16.3°F-8.7°C 79% 2.0 mph W3.2 kmh W 9.0 mph14.5 kmh 30.46 in1031.5 mb 0.00 in0.0 mm 0.00 in/hr0.0 mm/hr 0.00 in0.0 mm
08:55 AM 21.8°F-5.7°C 16.6°F-8.6°C 80% 4.0 mph W6.4 kmh W 9.0 mph14.5 kmh 30.46 in1031.5 mb 0.00 in0.0 mm 0.00 in/hr0.0 mm/hr 0.00 in0.0 mm
08:50 AM 21.6°F-5.8°C 16.4°F-8.7°C 80% 3.0 mph W4.8 kmh W 11.0 mph17.7 kmh 30.45 in1031.2 mb 0.00 in0.0 mm 0.00 in/hr0.0 mm/hr 0.00 in0.0 mm
08:45 AM 21.5°F-5.8°C 16.0°F-8.9°C 79% 5.0 mph WSW8.0 kmh WSW 11.0 mph17.7 kmh 30.45 in1031.2 mb 0.00 in0.0 mm 0.00 in/hr0.0 mm/hr 0.00 in0.0 mm
08:40 AM 21.4°F-5.9°C 15.9°F-8.9°C 79% 9.0 mph WSW14.5 kmh WSW 11.0 mph17.7 kmh 30.45 in1031.2 mb 0.00 in0.0 mm 0.00 in/hr0.0 mm/hr 0.00 in0.0 mm
08:35 AM 21.4°F-5.9°C 16.2°F-8.8°C 80% 6.0 mph W9.7 kmh W 11.0 mph17.7 kmh 30.45 in1031.2 mb 0.00 in0.0 mm 0.00 in/hr0.0 mm/hr 0.00 in0.0 mm
08:30 AM 21.4°F-5.9°C 16.2°F-8.8°C 80% 5.0 mph W8.0 kmh W 11.0 mph17.7 kmh 30.45 in1031.2 mb 0.00 in0.0 mm 0.00 in/hr0.0 mm/hr 0.00 in0.0 mm
08:25 AM 21.3°F-5.9°C 16.1°F-8.8°C 80% 3.0 mph WSW4.8 kmh WSW 11.0 mph17.7 kmh 30.44 in1030.8 mb 0.00 in0.0 mm 0.00 in/hr0.0 mm/hr 0.00 in0.0 mm
08:20 AM 21.3°F-5.9°C 16.1°F-8.8°C 80% 4.0 mph WSW6.4 kmh WSW 10.0 mph16.1 kmh 30.44 in1030.8 mb 0.00 in0.0 mm 0.00 in/hr0.0 mm/hr 0.00 in0.0 mm
08:15 AM 21.2°F-6.0°C 16.0°F-8.9°C 80% 5.0 mph WSW8.0 kmh WSW 10.0 mph16.1 kmh 30.44 in1030.8 mb 0.00 in0.0 mm 0.00 in/hr0.0 mm/hr 0.00 in0.0 mm
08:10 AM 21.1°F-6.1°C 15.9°F-8.9°C 80% 4.0 mph WSW6.4 kmh WSW 10.0 mph16.1 kmh 30.44 in1030.8 mb 0.00 in0.0 mm 0.00 in/hr0.0 mm/hr 0.00 in0.0 mm
08:05 AM 21.0°F-6.1°C 15.8°F-9.0°C 80% 3.0 mph WSW4.8 kmh WSW 10.0 mph16.1 kmh 30.43 in1030.5 mb 0.00 in0.0 mm 0.00 in/hr0.0 mm/hr 0.00 in0.0 mm
08:00 AM 21.0°F-6.1°C 15.8°F-9.0°C 80% 5.0 mph WSW8.0 kmh WSW 9.0 mph14.5 kmh 30.43 in1030.5 mb 0.00 in0.0 mm 0.00 in/hr0.0 mm/hr 0.00 in0.0 mm
07:55 AM 20.8°F-6.2°C 15.6°F-9.1°C 80% 5.0 mph WSW8.0 kmh WSW 8.0 mph12.9 kmh 30.43 in1030.5 mb 0.00 in0.0 mm 0.00 in/hr0.0 mm/hr 0.00 in0.0 mm
07:50 AM 20.7°F-6.3°C 15.5°F-9.2°C 80% 3.0 mph WSW4.8 kmh WSW 10.0 mph16.1 kmh 30.43 in1030.5 mb 0.00 in0.0 mm 0.00 in/hr0.0 mm/hr 0.00 in0.0 mm
07:45 AM 20.5°F-6.4°C 15.3°F-9.3°C 80% 5.0 mph W8.0 kmh W 10.0 mph16.1 kmh 30.43 in1030.5 mb 0.00 in0.0 mm 0.00 in/hr0.0 mm/hr 0.00 in0.0 mm
07:40 AM 20.4°F-6.4°C 15.2°F-9.3°C 80% 3.0 mph WSW4.8 kmh WSW 10.0 mph16.1 kmh 30.43 in1030.5 mb 0.00 in0.0 mm 0.00 in/hr0.0 mm/hr 0.00 in0.0 mm
07:35 AM 20.4°F-6.4°C 14.9°F-9.5°C 79% 4.0 mph W6.4 kmh W 10.0 mph16.1 kmh 30.43 in1030.5 mb 0.00 in0.0 mm 0.00 in/hr0.0 mm/hr 0.00 in0.0 mm
07:30 AM 20.4°F-6.4°C 14.9°F-9.5°C 79% 3.0 mph WSW4.8 kmh WSW 9.0 mph14.5 kmh 30.43 in1030.5 mb 0.00 in0.0 mm 0.00 in/hr0.0 mm/hr 0.00 in0.0 mm
07:25 AM 20.5°F-6.4°C 15.0°F-9.4°C 79% 3.0 mph W4.8 kmh W 8.0 mph12.9 kmh 30.42 in1030.1 mb 0.00 in0.0 mm 0.00 in/hr0.0 mm/hr 0.00 in0.0 mm
07:20 AM 20.7°F-6.3°C 15.2°F-9.3°C 79% 2.0 mph WSW3.2 kmh WSW 11.0 mph17.7 kmh 30.42 in1030.1 mb 0.00 in0.0 mm 0.00 in/hr0.0 mm/hr 0.00 in0.0 mm
07:15 AM 20.9°F-6.2°C 15.4°F-9.2°C 79% 7.0 mph WSW11.3 kmh WSW 11.0 mph17.7 kmh 30.42 in1030.1 mb 0.00 in0.0 mm 0.00 in/hr0.0 mm/hr 0.00 in0.0 mm
07:10 AM 21.1°F-6.1°C 15.6°F-9.1°C 79% 2.0 mph WSW3.2 kmh WSW 17.0 mph27.4 kmh 30.42 in1030.1 mb 0.00 in0.0 mm 0.00 in/hr0.0 mm/hr 0.00 in0.0 mm
07:05 AM 21.4°F-5.9°C 15.9°F-8.9°C 79% 4.0 mph WSW6.4 kmh WSW 17.0 mph27.4 kmh 30.42 in1030.1 mb 0.00 in0.0 mm 0.00 in/hr0.0 mm/hr 0.00 in0.0 mm
07:00 AM 21.7°F-5.7°C 16.2°F-8.8°C 79% 2.0 mph WSW3.2 kmh WSW 17.0 mph27.4 kmh 30.41 in1029.8 mb 0.00 in0.0 mm 0.00 in/hr0.0 mm/hr 0.00 in0.0 mm
06:55 AM 21.9°F-5.6°C 16.7°F-8.5°C 80% 6.0 mph W9.7 kmh W 17.0 mph27.4 kmh 30.41 in1029.8 mb 0.00 in0.0 mm 0.00 in/hr0.0 mm/hr 0.00 in0.0 mm
06:50 AM 22.0°F-5.6°C 16.8°F-8.4°C 80% 7.0 mph WNW11.3 kmh WNW 14.0 mph22.5 kmh 30.41 in1029.8 mb 0.00 in0.0 mm 0.00 in/hr0.0 mm/hr 0.00 in0.0 mm
06:45 AM 22.1°F-5.5°C 16.9°F-8.4°C 80% 8.0 mph W12.9 kmh W 14.0 mph22.5 kmh 30.41 in1029.8 mb 0.00 in0.0 mm 0.00 in/hr0.0 mm/hr 0.00 in0.0 mm
06:40 AM 22.1°F-5.5°C 16.9°F-8.4°C 80% 7.0 mph W11.3 kmh W 15.0 mph24.1 kmh 30.40 in1029.5 mb 0.00 in0.0 mm 0.00 in/hr0.0 mm/hr 0.00 in0.0 mm
06:35 AM 22.1°F-5.5°C 16.9°F-8.4°C 80% 10.0 mph WNW16.1 kmh WNW 15.0 mph24.1 kmh 30.40 in1029.5 mb 0.00 in0.0 mm 0.00 in/hr0.0 mm/hr 0.00 in0.0 mm
06:30 AM 22.0°F-5.6°C 16.8°F-8.4°C 80% 4.0 mph W6.4 kmh W 15.0 mph24.1 kmh 30.40 in1029.5 mb 0.00 in0.0 mm 0.00 in/hr0.0 mm/hr 0.00 in0.0 mm
06:25 AM 21.9°F-5.6°C 17.0°F-8.3°C 81% 8.0 mph W12.9 kmh W 15.0 mph24.1 kmh 30.40 in1029.5 mb 0.00 in0.0 mm 0.00 in/hr0.0 mm/hr 0.00 in0.0 mm
06:20 AM 21.8°F-5.7°C 16.9°F-8.4°C 81% 7.0 mph WNW11.3 kmh WNW 13.0 mph20.9 kmh 30.39 in1029.1 mb 0.00 in0.0 mm 0.00 in/hr0.0 mm/hr 0.00 in0.0 mm
06:15 AM 21.6°F-5.8°C 16.7°F-8.5°C 81% 6.0 mph W9.7 kmh W 13.0 mph20.9 kmh 30.39 in1029.1 mb 0.00 in0.0 mm 0.00 in/hr0.0 mm/hr 0.00 in0.0 mm
06:10 AM 21.4°F-5.9°C 16.5°F-8.6°C 81% 4.0 mph WSW6.4 kmh WSW 13.0 mph20.9 kmh 30.39 in1029.1 mb 0.00 in0.0 mm 0.00 in/hr0.0 mm/hr 0.00 in0.0 mm
06:05 AM 21.3°F-5.9°C 16.4°F-8.7°C 81% 9.0 mph W14.5 kmh W 13.0 mph20.9 kmh 30.38 in1028.8 mb 0.00 in0.0 mm 0.00 in/hr0.0 mm/hr 0.00 in0.0 mm
06:00 AM 21.2°F-6.0°C 16.3°F-8.7°C 81% 9.0 mph WSW14.5 kmh WSW 10.0 mph16.1 kmh 30.38 in1028.8 mb 0.00 in0.0 mm 0.00 in/hr0.0 mm/hr 0.00 in0.0 mm
05:55 AM 21.0°F-6.1°C 16.1°F-8.8°C 81% 7.0 mph WSW11.3 kmh WSW 11.0 mph17.7 kmh 30.37 in1028.4 mb 0.00 in0.0 mm 0.00 in/hr0.0 mm/hr 0.00 in0.0 mm
05:50 AM 21.0°F-6.1°C 16.1°F-8.8°C 81% 5.0 mph W8.0 kmh W 11.0 mph17.7 kmh 30.37 in1028.4 mb 0.00 in0.0 mm 0.00 in/hr0.0 mm/hr 0.00 in0.0 mm
05:45 AM 21.0°F-6.1°C 16.1°F-8.8°C 81% 2.0 mph W3.2 kmh W 11.0 mph17.7 kmh 30.37 in1028.4 mb 0.00 in0.0 mm 0.00 in/hr0.0 mm/hr 0.00 in0.0 mm
05:40 AM 21.0°F-6.1°C 16.1°F-8.8°C 81% 3.0 mph WSW4.8 kmh WSW 11.0 mph17.7 kmh 30.36 in1028.1 mb 0.00 in0.0 mm 0.00 in/hr0.0 mm/hr 0.00 in0.0 mm
05:35 AM 21.0°F-6.1°C 16.1°F-8.8°C 81% 4.0 mph WSW6.4 kmh WSW 10.0 mph16.1 kmh 30.36 in1028.1 mb 0.00 in0.0 mm 0.00 in/hr0.0 mm/hr 0.00 in0.0 mm
05:30 AM 20.9°F-6.2°C 16.0°F-8.9°C 81% 4.0 mph SW6.4 kmh SW 10.0 mph16.1 kmh 30.35 in1027.8 mb 0.00 in0.0 mm 0.00 in/hr0.0 mm/hr 0.00 in0.0 mm
05:25 AM 20.8°F-6.2°C 15.9°F-8.9°C 81% 6.0 mph WSW9.7 kmh WSW 10.0 mph16.1 kmh 30.35 in1027.8 mb 0.00 in0.0 mm 0.00 in/hr0.0 mm/hr 0.00 in0.0 mm
05:20 AM 20.8°F-6.2°C 15.9°F-8.9°C 81% 5.0 mph SW8.0 kmh SW 10.0 mph16.1 kmh 30.35 in1027.8 mb 0.00 in0.0 mm 0.00 in/hr0.0 mm/hr 0.00 in0.0 mm
05:15 AM 20.9°F-6.2°C 16.0°F-8.9°C 81% 7.0 mph WSW11.3 kmh WSW 10.0 mph16.1 kmh 30.35 in1027.8 mb 0.00 in0.0 mm 0.00 in/hr0.0 mm/hr 0.00 in0.0 mm
05:10 AM 21.0°F-6.1°C 16.1°F-8.8°C 81% 6.0 mph W9.7 kmh W 13.0 mph20.9 kmh 30.34 in1027.4 mb 0.00 in0.0 mm 0.00 in/hr0.0 mm/hr 0.00 in0.0 mm
05:05 AM 21.1°F-6.1°C 16.5°F-8.6°C 82% 5.0 mph WSW8.0 kmh WSW 13.0 mph20.9 kmh 30.34 in1027.4 mb 0.00 in0.0 mm 0.00 in/hr0.0 mm/hr 0.00 in0.0 mm
05:00 AM 21.2°F-6.0°C 16.6°F-8.6°C 82% 7.0 mph WSW11.3 kmh WSW 13.0 mph20.9 kmh 30.33 in1027.1 mb 0.00 in0.0 mm 0.00 in/hr0.0 mm/hr 0.00 in0.0 mm
04:55 AM 21.4°F-5.9°C 16.8°F-8.4°C 82% 7.0 mph WSW11.3 kmh WSW 13.0 mph20.9 kmh 30.33 in1027.1 mb 0.00 in0.0 mm 0.00 in/hr0.0 mm/hr 0.00 in0.0 mm
04:50 AM 21.6°F-5.8°C 17.0°F-8.3°C 82% 7.0 mph W11.3 kmh W 13.0 mph20.9 kmh 30.33 in1027.1 mb 0.00 in0.0 mm 0.00 in/hr0.0 mm/hr 0.00 in0.0 mm
04:45 AM 21.7°F-5.7°C 17.1°F-8.3°C 82% 8.0 mph WNW12.9 kmh WNW 13.0 mph20.9 kmh 30.33 in1027.1 mb 0.00 in0.0 mm 0.00 in/hr0.0 mm/hr 0.00 in0.0 mm
04:40 AM 21.9°F-5.6°C 17.6°F-8.0°C 83% 6.0 mph W9.7 kmh W 12.0 mph19.3 kmh 30.33 in1027.1 mb 0.00 in0.0 mm 0.00 in/hr0.0 mm/hr 0.00 in0.0 mm
04:35 AM 22.0°F-5.6°C 17.7°F-7.9°C 83% 8.0 mph WSW12.9 kmh WSW 11.0 mph17.7 kmh 30.33 in1027.1 mb 0.00 in0.0 mm 0.00 in/hr0.0 mm/hr 0.00 in0.0 mm
04:30 AM 22.1°F-5.5°C 17.8°F-7.9°C 83% 9.0 mph WSW14.5 kmh WSW 13.0 mph20.9 kmh 30.32 in1026.8 mb 0.00 in0.0 mm 0.00 in/hr0.0 mm/hr 0.00 in0.0 mm
04:25 AM 22.2°F-5.4°C 18.1°F-7.7°C 84% 5.0 mph WSW8.0 kmh WSW 13.0 mph20.9 kmh 30.32 in1026.8 mb 0.00 in0.0 mm 0.00 in/hr0.0 mm/hr 0.00 in0.0 mm
04:20 AM 22.2°F-5.4°C 18.1°F-7.7°C 84% 8.0 mph WSW12.9 kmh WSW 13.0 mph20.9 kmh 30.32 in1026.8 mb 0.00 in0.0 mm 0.00 in/hr0.0 mm/hr 0.00 in0.0 mm
04:15 AM 22.1°F-5.5°C 18.0°F-7.8°C 84% 3.0 mph WSW4.8 kmh WSW 13.0 mph20.9 kmh 30.32 in1026.8 mb 0.00 in0.0 mm 0.00 in/hr0.0 mm/hr 0.00 in0.0 mm
04:10 AM 22.1°F-5.5°C 18.0°F-7.8°C 84% 2.0 mph WSW3.2 kmh WSW 9.0 mph14.5 kmh 30.32 in1026.8 mb 0.00 in0.0 mm 0.00 in/hr0.0 mm/hr 0.00 in0.0 mm
04:05 AM 22.1°F-5.5°C 18.0°F-7.8°C 84% 6.0 mph W9.7 kmh W 11.0 mph17.7 kmh 30.31 in1026.4 mb 0.00 in0.0 mm 0.00 in/hr0.0 mm/hr 0.00 in0.0 mm
04:00 AM 22.0°F-5.6°C 17.9°F-7.8°C 84% 6.0 mph WSW9.7 kmh WSW 11.0 mph17.7 kmh 30.32 in1026.8 mb 0.00 in0.0 mm 0.00 in/hr0.0 mm/hr 0.00 in0.0 mm
03:55 AM 22.0°F-5.6°C 18.2°F-7.7°C 85% 3.0 mph WSW4.8 kmh WSW 11.0 mph17.7 kmh 30.31 in1026.4 mb 0.00 in0.0 mm 0.00 in/hr0.0 mm/hr 0.00 in0.0 mm
03:50 AM 21.9°F-5.6°C 17.9°F-7.8°C 84% 6.0 mph W9.7 kmh W 11.0 mph17.7 kmh 30.31 in1026.4 mb 0.00 in0.0 mm 0.00 in/hr0.0 mm/hr 0.00 in0.0 mm
03:45 AM 21.9°F-5.6°C 18.1°F-7.7°C 85% 4.0 mph WSW6.4 kmh WSW 12.0 mph19.3 kmh 30.31 in1026.4 mb 0.00 in0.0 mm 0.00 in/hr0.0 mm/hr 0.00 in0.0 mm
03:40 AM 21.9°F-5.6°C 18.1°F-7.7°C 85% 3.0 mph W4.8 kmh W 12.0 mph19.3 kmh 30.31 in1026.4 mb 0.00 in0.0 mm 0.00 in/hr0.0 mm/hr 0.00 in0.0 mm
03:35 AM 21.9°F-5.6°C 18.1°F-7.7°C 85% 10.0 mph W16.1 kmh W 13.0 mph20.9 kmh 30.31 in1026.4 mb 0.00 in0.0 mm 0.00 in/hr0.0 mm/hr 0.00 in0.0 mm
03:30 AM 21.9°F-5.6°C 18.1°F-7.7°C 85% 3.0 mph W4.8 kmh W 13.0 mph20.9 kmh 30.31 in1026.4 mb 0.00 in0.0 mm 0.00 in/hr0.0 mm/hr 0.00 in0.0 mm
03:25 AM 21.8°F-5.7°C 18.0°F-7.8°C 85% 3.0 mph W4.8 kmh W 13.0 mph20.9 kmh 30.31 in1026.4 mb 0.00 in0.0 mm 0.00 in/hr0.0 mm/hr 0.00 in0.0 mm
03:20 AM 21.9°F-5.6°C 18.1°F-7.7°C 85% 4.0 mph W6.4 kmh W 13.0 mph20.9 kmh 30.31 in1026.4 mb 0.00 in0.0 mm 0.00 in/hr0.0 mm/hr 0.00 in0.0 mm
03:15 AM 21.8°F-5.7°C 18.0°F-7.8°C 85% 5.0 mph W8.0 kmh W 10.0 mph16.1 kmh 30.32 in1026.8 mb 0.00 in0.0 mm 0.00 in/hr0.0 mm/hr 0.00 in0.0 mm
03:10 AM 21.8°F-5.7°C 18.0°F-7.8°C 85% 4.0 mph W6.4 kmh W 10.0 mph16.1 kmh 30.32 in1026.8 mb 0.00 in0.0 mm 0.00 in/hr0.0 mm/hr 0.00 in0.0 mm
03:05 AM 21.8°F-5.7°C 18.0°F-7.8°C 85% 4.0 mph WSW6.4 kmh WSW 9.0 mph14.5 kmh 30.32 in1026.8 mb 0.00 in0.0 mm 0.00 in/hr0.0 mm/hr 0.00 in0.0 mm
03:00 AM 21.8°F-5.7°C 18.0°F-7.8°C 85% 3.0 mph W4.8 kmh W 9.0 mph14.5 kmh 30.32 in1026.8 mb 0.00 in0.0 mm 0.00 in/hr0.0 mm/hr 0.00 in0.0 mm
02:55 AM 21.8°F-5.7°C 18.0°F-7.8°C 85% 3.0 mph WSW4.8 kmh WSW 9.0 mph14.5 kmh 30.32 in1026.8 mb 0.00 in0.0 mm 0.00 in/hr0.0 mm/hr 0.00 in0.0 mm
02:50 AM 21.7°F-5.7°C 17.9°F-7.8°C 85% 7.0 mph WSW11.3 kmh WSW 11.0 mph17.7 kmh 30.32 in1026.8 mb 0.00 in0.0 mm 0.00 in/hr0.0 mm/hr 0.00 in0.0 mm
02:45 AM 21.8°F-5.7°C 18.3°F-7.6°C 86% 2.0 mph WSW3.2 kmh WSW 11.0 mph17.7 kmh 30.32 in1026.8 mb 0.00 in0.0 mm 0.00 in/hr0.0 mm/hr 0.00 in0.0 mm
02:40 AM 21.7°F-5.7°C 18.2°F-7.7°C 86% 8.0 mph WNW12.9 kmh WNW 11.0 mph17.7 kmh 30.32 in1026.8 mb 0.00 in0.0 mm 0.00 in/hr0.0 mm/hr 0.00 in0.0 mm
02:35 AM 21.7°F-5.7°C 18.2°F-7.7°C 86% 2.0 mph WSW3.2 kmh WSW 11.0 mph17.7 kmh 30.32 in1026.8 mb 0.00 in0.0 mm 0.00 in/hr0.0 mm/hr 0.00 in0.0 mm
02:30 AM 21.7°F-5.7°C 18.2°F-7.7°C 86% 3.0 mph WNW4.8 kmh WNW 14.0 mph22.5 kmh 30.31 in1026.4 mb 0.00 in0.0 mm 0.00 in/hr0.0 mm/hr 0.00 in0.0 mm
02:25 AM 21.7°F-5.7°C 18.2°F-7.7°C 86% 3.0 mph W4.8 kmh W 14.0 mph22.5 kmh 30.32 in1026.8 mb 0.00 in0.0 mm 0.00 in/hr0.0 mm/hr 0.00 in0.0 mm
02:20 AM 21.7°F-5.7°C 18.2°F-7.7°C 86% 4.0 mph NW6.4 kmh NW 14.0 mph22.5 kmh 30.31 in1026.4 mb 0.00 in0.0 mm 0.00 in/hr0.0 mm/hr 0.00 in0.0 mm
02:15 AM 21.7°F-5.7°C 18.2°F-7.7°C 86% 5.0 mph W8.0 kmh W 14.0 mph22.5 kmh 30.31 in1026.4 mb 0.00 in0.0 mm 0.00 in/hr0.0 mm/hr 0.00 in0.0 mm
02:10 AM 21.7°F-5.7°C 18.2°F-7.7°C 86% 4.0 mph W6.4 kmh W 11.0 mph17.7 kmh 30.31 in1026.4 mb 0.00 in0.0 mm 0.00 in/hr0.0 mm/hr 0.00 in0.0 mm
02:05 AM 21.8°F-5.7°C 18.3°F-7.6°C 86% 4.0 mph WSW6.4 kmh WSW 10.0 mph16.1 kmh 30.30 in1026.1 mb 0.00 in0.0 mm 0.00 in/hr0.0 mm/hr 0.00 in0.0 mm
02:00 AM 21.8°F-5.7°C 18.3°F-7.6°C 86% 7.0 mph WSW11.3 kmh WSW 10.0 mph16.1 kmh 30.31 in1026.4 mb 0.00 in0.0 mm 0.00 in/hr0.0 mm/hr 0.00 in0.0 mm
01:55 AM 21.8°F-5.7°C 18.3°F-7.6°C 86% 3.0 mph W4.8 kmh W 13.0 mph20.9 kmh 30.31 in1026.4 mb 0.00 in0.0 mm 0.00 in/hr0.0 mm/hr 0.00 in0.0 mm
01:50 AM 21.9°F-5.6°C 18.4°F-7.6°C 86% 7.0 mph W11.3 kmh W 13.0 mph20.9 kmh 30.30 in1026.1 mb 0.00 in0.0 mm 0.00 in/hr0.0 mm/hr 0.00 in0.0 mm
01:45 AM 21.9°F-5.6°C 18.4°F-7.6°C 86% 4.0 mph W6.4 kmh W 15.0 mph24.1 kmh 30.30 in1026.1 mb 0.00 in0.0 mm 0.00 in/hr0.0 mm/hr 0.00 in0.0 mm
01:40 AM 22.1°F-5.5°C 18.6°F-7.4°C 86% 7.0 mph WSW11.3 kmh WSW 15.0 mph24.1 kmh 30.30 in1026.1 mb 0.00 in0.0 mm 0.00 in/hr0.0 mm/hr 0.00 in0.0 mm
01:35 AM 22.2°F-5.4°C 18.7°F-7.4°C 86% 7.0 mph WSW11.3 kmh WSW 15.0 mph24.1 kmh 30.29 in1025.7 mb 0.00 in0.0 mm 0.00 in/hr0.0 mm/hr 0.00 in0.0 mm
01:30 AM 22.2°F-5.4°C 18.7°F-7.4°C 86% 12.0 mph W19.3 kmh W 15.0 mph24.1 kmh 30.29 in1025.7 mb 0.00 in0.0 mm 0.00 in/hr0.0 mm/hr 0.00 in0.0 mm
01:25 AM 22.3°F-5.4°C 18.8°F-7.3°C 86% 3.0 mph WSW4.8 kmh WSW 12.0 mph19.3 kmh 30.30 in1026.1 mb 0.00 in0.0 mm 0.00 in/hr0.0 mm/hr 0.00 in0.0 mm
01:20 AM 22.3°F-5.4°C 18.8°F-7.3°C 86% 2.0 mph W3.2 kmh W 12.0 mph19.3 kmh 30.30 in1026.1 mb 0.00 in0.0 mm 0.00 in/hr0.0 mm/hr 0.00 in0.0 mm
01:15 AM 22.3°F-5.4°C 18.8°F-7.3°C 86% 5.0 mph WSW8.0 kmh WSW 12.0 mph19.3 kmh 30.29 in1025.7 mb 0.00 in0.0 mm 0.00 in/hr0.0 mm/hr 0.00 in0.0 mm
01:10 AM 22.3°F-5.4°C 18.8°F-7.3°C 86% 3.0 mph WSW4.8 kmh WSW 11.0 mph17.7 kmh 30.30 in1026.1 mb 0.00 in0.0 mm 0.00 in/hr0.0 mm/hr 0.00 in0.0 mm
01:05 AM 22.3°F-5.4°C 18.8°F-7.3°C 86% 4.0 mph WSW6.4 kmh WSW 9.0 mph14.5 kmh 30.30 in1026.1 mb 0.00 in0.0 mm 0.00 in/hr0.0 mm/hr 0.00 in0.0 mm
01:00 AM 22.3°F-5.4°C 18.8°F-7.3°C 86% 5.0 mph WSW8.0 kmh WSW 11.0 mph17.7 kmh 30.30 in1026.1 mb 0.00 in0.0 mm 0.00 in/hr0.0 mm/hr 0.00 in0.0 mm
12:55 AM 22.3°F-5.4°C 18.8°F-7.3°C 86% 4.0 mph WSW6.4 kmh WSW 11.0 mph17.7 kmh 30.29 in1025.7 mb 0.00 in0.0 mm 0.00 in/hr0.0 mm/hr 0.00 in0.0 mm
12:50 AM 22.3°F-5.4°C 18.8°F-7.3°C 86% 4.0 mph W6.4 kmh W 11.0 mph17.7 kmh 30.29 in1025.7 mb 0.00 in0.0 mm 0.00 in/hr0.0 mm/hr 0.00 in0.0 mm
12:45 AM 22.2°F-5.4°C 19.0°F-7.2°C 87% 2.0 mph WSW3.2 kmh WSW 11.0 mph17.7 kmh 30.29 in1025.7 mb 0.00 in0.0 mm 0.00 in/hr0.0 mm/hr 0.00 in0.0 mm
12:40 AM 22.2°F-5.4°C 19.0°F-7.2°C 87% 7.0 mph WSW11.3 kmh WSW 11.0 mph17.7 kmh 30.29 in1025.7 mb 0.00 in0.0 mm 0.00 in/hr0.0 mm/hr 0.00 in0.0 mm
12:35 AM 22.1°F-5.5°C 18.6°F-7.4°C 86% 5.0 mph WSW8.0 kmh WSW 11.0 mph17.7 kmh 30.29 in1025.7 mb 0.00 in0.0 mm 0.00 in/hr0.0 mm/hr 0.00 in0.0 mm
12:30 AM 22.0°F-5.6°C 18.5°F-7.5°C 86% 8.0 mph WSW12.9 kmh WSW 10.0 mph16.1 kmh 30.29 in1025.7 mb 0.00 in0.0 mm 0.00 in/hr0.0 mm/hr 0.00 in0.0 mm
12:25 AM 21.9°F-5.6°C 18.4°F-7.6°C 86% 5.0 mph WSW8.0 kmh WSW 10.0 mph16.1 kmh 30.29 in1025.7 mb 0.00 in0.0 mm 0.00 in/hr0.0 mm/hr 0.00 in0.0 mm
12:20 AM 21.7°F-5.7°C 18.5°F-7.5°C 87% 7.0 mph WSW11.3 kmh WSW 9.0 mph14.5 kmh 30.29 in1025.7 mb 0.00 in0.0 mm 0.00 in/hr0.0 mm/hr 0.00 in0.0 mm
12:15 AM 21.6°F-5.8°C 18.4°F-7.6°C 87% 8.0 mph W12.9 kmh W 9.0 mph14.5 kmh 30.29 in1025.7 mb 0.00 in0.0 mm 0.00 in/hr0.0 mm/hr 0.00 in0.0 mm
12:10 AM 21.4°F-5.9°C 17.9°F-7.8°C 86% 4.0 mph WSW6.4 kmh WSW 9.0 mph14.5 kmh 30.29 in1025.7 mb 0.00 in0.0 mm 0.00 in/hr0.0 mm/hr 0.00 in0.0 mm
12:05 AM 21.1°F-6.1°C 17.6°F-8.0°C 86% 3.0 mph WSW4.8 kmh WSW 8.0 mph12.9 kmh 30.29 in1025.7 mb 0.00 in0.0 mm 0.00 in/hr0.0 mm/hr 0.00 in0.0 mm
12:00 AM 21.0°F-6.1°C 17.5°F-8.1°C 86% 3.0 mph W4.8 kmh W 7.0 mph11.3 kmh 30.29 in1025.7 mb 0.00 in0.0 mm 0.00 in/hr0.0 mm/hr 0.00 in0.0 mm